Time;durP1;ratioP1;P1;durP2;ratioP2;P2;SDS_P1;SDS_P2;PMS_P1;PMS_P2;Temp;Humidity;BMP_temperature;BMP_pressure;BME280_temperature;BME280_humidity;BME280_pressure;Samples;Min_cycle;Max_cycle;Signal;HPM_P1;HPM_P2
2021/12/01 00:00:26;;;;;;;7.13;6.03;;;;;;;8.77;100.00;100158.38;5053766;28;20033;-87
2021/12/01 00:02:55;;;;;;;7.18;4.30;;;;;;;8.81;100.00;100148.63;5061263;28;20033;-87
2021/12/01 00:05:25;;;;;;;6.47;4.53;;;;;;;8.76;100.00;100132.88;5035186;28;20037;-88
2021/12/01 00:07:51;;;;;;;4.93;3.92;;;;;;;8.81;100.00;100128.34;5035295;28;20389;-88
2021/12/01 00:10:18;;;;;;;4.85;3.78;;;;;;;8.83;100.00;100121.28;5042478;28;20115;-88
2021/12/01 00:12:44;;;;;;;5.28;3.90;;;;;;;8.77;100.00;100104.72;5037132;28;20130;-88
2021/12/01 00:15:10;;;;;;;3.78;2.97;;;;;;;8.93;100.00;100099.91;5037587;28;20025;-88
2021/12/01 00:17:36;;;;;;;5.57;4.07;;;;;;;8.82;100.00;100084.34;5049189;28;20071;-88
2021/12/01 00:20:04;;;;;;;4.15;3.13;;;;;;;8.78;100.00;100088.84;5036718;28;20045;-88
2021/12/01 00:22:30;;;;;;;3.50;3.20;;;;;;;8.79;100.00;100077.38;5053301;28;20112;-88
2021/12/01 00:24:55;;;;;;;4.68;3.15;;;;;;;8.87;100.00;100063.09;5053367;28;20483;-88
2021/12/01 00:27:21;;;;;;;4.97;3.90;;;;;;;8.78;100.00;100059.81;5044073;28;20042;-88
2021/12/01 00:29:49;;;;;;;3.45;3.15;;;;;;;8.76;100.00;100042.28;5034630;28;20389;-88
2021/12/01 00:32:16;;;;;;;4.78;3.67;;;;;;;8.78;100.00;100043.97;5033396;28;20107;-87
2021/12/01 00:34:42;;;;;;;5.13;3.92;;;;;;;8.76;100.00;100035.22;5049441;28;20025;-88
2021/12/01 00:37:08;;;;;;;3.88;3.20;;;;;;;8.79;100.00;100024.56;5053043;28;20112;-88
2021/12/01 00:39:33;;;;;;;5.60;3.28;;;;;;;8.75;100.00;100009.75;5053169;28;20564;-87
2021/12/01 00:42:00;;;;;;;4.15;3.58;;;;;;;8.78;100.00;100014.06;5044708;28;20503;-89
2021/12/01 00:44:29;;;;;;;6.72;3.53;;;;;;;8.76;100.00;100008.81;5037294;28;20033;-87
2021/12/01 00:47:03;;;;;;;3.53;3.08;;;;;;;8.78;100.00;100003.50;5032931;28;20041;-88
2021/12/01 00:49:34;;;;;;;6.47;3.00;;;;;;;8.90;100.00;100002.28;5017509;28;20089;-88
2021/12/01 00:52:00;;;;;;;3.80;3.17;;;;;;;8.86;100.00;100005.94;5047549;28;20032;-91
2021/12/01 00:54:26;;;;;;;3.25;2.88;;;;;;;8.86;100.00;100004.16;5069493;28;20017;-88
2021/12/01 00:56:52;;;;;;;3.22;2.42;;;;;;;8.87;100.00;99992.66;5042114;28;20085;-88
2021/12/01 00:59:18;;;;;;;4.18;3.17;;;;;;;8.82;100.00;99991.94;5045656;28;20021;-88
2021/12/01 01:01:46;;;;;;;3.28;2.95;;;;;;;8.84;100.00;99984.84;5067872;28;20072;-87
2021/12/01 01:04:12;;;;;;;3.30;3.00;;;;;;;8.80;100.00;99964.69;5032829;28;20029;-87
2021/12/01 01:06:37;;;;;;;2.72;2.47;;;;;;;8.91;100.00;99974.97;5040689;28;20349;-88
2021/12/01 01:09:05;;;;;;;4.50;2.90;;;;;;;8.76;100.00;99971.88;5033920;28;20543;-87
2021/12/01 01:17:09;;;;;;;6.95;2.70;;;;;;;8.74;100.00;99944.63;5052482;28;20041;-88
2021/12/01 01:19:37;;;;;;;5.63;2.30;;;;;;;8.76;100.00;99960.44;5052145;28;20025;-89
2021/12/01 01:22:05;;;;;;;3.97;2.92;;;;;;;8.71;100.00;99947.38;5053514;28;20037;-88
2021/12/01 01:24:30;;;;;;;4.70;2.72;;;;;;;8.74;100.00;99947.28;5052117;28;20485;-89
2021/12/01 01:26:56;;;;;;;6.00;3.08;;;;;;;8.69;100.00;99927.22;5051937;28;20142;-87
2021/12/01 01:29:23;;;;;;;3.70;2.70;;;;;;;8.67;100.00;99921.09;5052061;28;20064;-87
2021/12/01 01:31:54;;;;;;;3.10;2.80;;;;;;;8.72;100.00;99924.47;5018984;28;20395;-87
2021/12/01 01:34:20;;;;;;;;;;;;;;;8.74;100.00;99910.31;5053746;28;20029;-88
2021/12/01 01:36:46;;;;;;;4.13;3.10;;;;;;;8.67;100.00;99923.75;5053206;28;20336;-88
2021/12/01 01:39:11;;;;;;;4.88;3.15;;;;;;;8.70;100.00;99921.00;5053348;28;20032;-87
2021/12/01 01:41:37;;;;;;;4.13;2.92;;;;;;;8.68;100.00;99905.22;5053196;28;20064;-88
2021/12/01 01:44:03;;;;;;;3.83;2.92;;;;;;;8.70;100.00;99908.66;5051686;28;20037;-85
2021/12/01 01:46:37;;;;;;;6.03;3.58;;;;;;;8.78;100.00;99895.28;5053070;28;20029;-88
2021/12/01 01:49:40;;;;;;;5.13;3.88;;;;;;;8.65;100.00;99900.03;5033565;28;20028;-90
2021/12/01 01:51:54;;;;;;;5.00;3.70;;;;;;;8.57;100.00;99884.41;5040763;28;20033;-87
2021/12/01 01:54:20;;;;;;;4.53;3.65;;;;;;;8.66;100.00;99895.63;5035994;28;20032;-88
2021/12/01 01:56:45;;;;;;;3.65;3.20;;;;;;;8.63;100.00;99886.03;5025917;28;20041;-89
2021/12/01 01:59:11;;;;;;;7.03;3.90;;;;;;;8.51;100.00;99874.06;5014955;28;20366;-88
2021/12/01 02:01:46;;;;;;;6.05;4.10;;;;;;;8.42;100.00;99866.38;5031413;28;20132;-90
2021/12/01 02:04:15;;;;;;;4.18;3.78;;;;;;;8.49;100.00;99875.00;5034179;28;20040;-89
2021/12/01 02:06:41;;;;;;;6.60;4.15;;;;;;;8.45;100.00;99876.84;5034618;28;20086;-89
2021/12/01 02:09:08;;;;;;;5.47;3.88;;;;;;;8.39;100.00;99845.34;5034952;28;20097;-88
2021/12/01 02:11:34;;;;;;;5.25;4.68;;;;;;;8.35;100.00;99862.16;5031519;28;20371;-88
2021/12/01 02:13:59;;;;;;;4.15;3.55;;;;;;;8.42;100.00;99839.16;5032826;28;20040;-88
2021/12/01 02:16:25;;;;;;;3.83;3.22;;;;;;;8.36;100.00;99842.81;5011752;28;20032;-88
2021/12/01 02:18:52;;;;;;;5.40;3.20;;;;;;;8.50;100.00;99830.09;5052703;28;20044;-88
2021/12/01 02:21:27;;;;;;;4.32;3.38;;;;;;;8.33;100.00;99830.56;5027511;28;20057;-87
2021/12/01 02:24:04;;;;;;;3.38;2.63;;;;;;;8.46;100.00;99819.69;5043238;28;20029;-88
2021/12/01 02:26:34;;;;;;;3.92;3.15;;;;;;;8.42;98.94;99804.84;5068043;28;20049;-89
2021/12/01 02:29:03;;;;;;;2.95;2.63;;;;;;;8.32;99.77;99789.25;5068261;28;20124;-88
2021/12/01 02:31:33;;;;;;;4.00;3.20;;;;;;;8.22;100.00;99789.56;5041138;28;20104;-88
2021/12/01 02:33:59;;;;;;;3.65;2.50;;;;;;;8.37;99.26;99783.84;5032932;28;20029;-89
2021/12/01 02:36:26;;;;;;;2.65;2.40;;;;;;;8.30;98.74;99767.31;5034738;28;20115;-88
2021/12/01 02:38:51;;;;;;;3.17;2.70;;;;;;;8.24;99.85;99761.38;5052300;28;20053;-88
2021/12/01 02:41:26;;;;;;;6.75;3.03;;;;;;;8.15;99.93;99770.41;5034564;28;20047;-87
2021/12/01 02:43:52;;;;;;;3.15;2.40;;;;;;;8.22;99.56;99766.69;5050738;28;20067;-89
2021/12/01 02:46:17;;;;;;;5.30;3.28;;;;;;;8.13;100.00;99745.88;5035017;28;20116;-87
2021/12/01 02:48:44;;;;;;;3.88;2.50;;;;;;;8.15;99.80;99744.91;5052348;28;20481;-88
2021/12/01 02:51:11;;;;;;;3.05;2.30;;;;;;;8.23;98.82;99734.13;5050678;28;20473;-88
2021/12/01 02:53:37;;;;;;;2.80;2.42;;;;;;;8.09;99.07;99734.56;5031093;28;20084;-89
2021/12/01 02:56:04;;;;;;;3.20;2.80;;;;;;;8.10;99.40;99731.00;5022655;28;20405;-88
2021/12/01 02:58:32;;;;;;;2.70;2.33;;;;;;;8.12;99.47;99746.78;5020564;28;20178;-87
2021/12/01 03:01:01;;;;;;;2.33;2.08;;;;;;;8.17;99.14;99718.50;5043761;28;20088;-89
2021/12/01 03:03:27;;;;;;;2.00;1.80;;;;;;;8.13;99.40;99716.84;5032087;28;20037;-89
2021/12/01 03:05:56;;;;;;;3.20;2.22;;;;;;;8.24;98.63;99735.00;5031135;28;20437;-86
2021/12/01 03:08:22;;;;;;;2.80;2.08;;;;;;;8.03;99.35;99712.75;5031147;28;20037;-87
2021/12/01 03:10:53;;;;;;;3.22;2.50;;;;;;;8.00;99.15;99703.19;5014430;28;20393;-88
2021/12/01 03:13:20;;;;;;;3.75;2.33;;;;;;;7.88;99.54;99693.84;5042602;28;20087;-88
2021/12/01 03:15:47;;;;;;;3.28;2.40;;;;;;;7.88;99.82;99696.47;5024969;28;20036;-88
2021/12/01 03:18:14;;;;;;;3.08;2.60;;;;;;;7.95;98.79;99686.63;5040819;28;20060;-87
2021/12/01 03:20:40;;;;;;;3.47;2.53;;;;;;;7.84;99.77;99694.88;5040779;28;20049;-88
2021/12/01 03:23:06;;;;;;;5.80;2.90;;;;;;;7.85;99.56;99674.63;5041431;28;20512;-86
2021/12/01 03:25:32;;;;;;;3.90;2.97;;;;;;;7.89;98.93;99665.75;5039882;28;20038;-88
2021/12/01 03:27:59;;;;;;;4.45;3.00;;;;;;;7.83;98.96;99655.38;5043886;28;20028;-87
2021/12/01 03:30:25;;;;;;;2.67;2.42;;;;;;;7.93;98.52;99659.44;5044793;28;20497;-87
2021/12/01 03:32:51;;;;;;;3.30;2.50;;;;;;;7.92;98.52;99653.31;5026729;28;20061;-88
2021/12/01 03:35:17;;;;;;;3.72;2.70;;;;;;;7.82;98.21;99627.28;5047169;28;20013;-88
2021/12/01 03:37:47;;;;;;;4.85;2.40;;;;;;;7.82;98.69;99641.31;5043266;28;20056;-87
2021/12/01 03:40:15;;;;;;;3.95;3.20;;;;;;;7.84;97.94;99618.44;5045544;28;20087;-89
2021/12/01 03:42:41;;;;;;;7.88;3.40;;;;;;;7.72;98.49;99622.28;5044994;28;20013;-88
2021/12/01 03:45:07;;;;;;;3.97;2.63;;;;;;;7.72;98.63;99622.28;5030364;28;20076;-87
2021/12/01 03:47:33;;;;;;;3.90;3.00;;;;;;;7.72;98.10;99609.13;5042976;28;20048;-87
2021/12/01 03:49:59;;;;;;;4.15;2.50;;;;;;;7.84;98.37;99613.16;5028986;28;20414;-88
2021/12/01 03:52:24;;;;;;;6.00;2.65;;;;;;;7.75;98.00;99611.66;5044191;28;20104;-86
2021/12/01 03:54:51;;;;;;;4.57;2.92;;;;;;;7.73;97.52;99599.44;5044523;28;20024;-88
2021/12/01 03:57:16;;;;;;;3.88;2.80;;;;;;;7.74;97.17;99583.59;5044598;28;20029;-88
2021/12/01 03:59:42;;;;;;;2.85;2.55;;;;;;;7.75;96.82;99568.63;5044522;28;20048;-88
2021/12/01 04:02:11;;;;;;;3.60;2.78;;;;;;;7.77;96.85;99572.09;5028411;28;20025;-87
2021/12/01 04:04:37;;;;;;;3.13;2.50;;;;;;;7.91;95.83;99569.88;5045077;28;20043;-88
2021/12/01 04:07:03;;;;;;;3.80;2.50;;;;;;;7.88;95.96;99569.97;5043631;28;20018;-87
2021/12/01 04:09:29;;;;;;;3.47;2.40;;;;;;;7.91;95.47;99563.72;5044857;28;20033;-88
2021/12/01 04:11:55;;;;;;;5.07;3.40;;;;;;;7.70;95.63;99563.50;5042404;28;20032;-88
2021/12/01 04:14:21;;;;;;;4.82;2.85;;;;;;;7.71;96.20;99540.63;5016767;28;20489;-88
2021/12/01 04:16:47;;;;;;;4.00;2.85;;;;;;;7.72;95.20;99535.31;5044028;28;20108;-88
2021/12/01 04:19:12;;;;;;;4.47;3.05;;;;;;;7.72;95.48;99532.69;5043763;28;20051;-88
2021/12/01 04:21:39;;;;;;;3.72;2.92;;;;;;;7.72;96.07;99529.19;5015122;28;20045;-88
2021/12/01 04:24:05;;;;;;;4.35;2.63;;;;;;;7.69;95.54;99518.72;5024802;28;20507;-88
2021/12/01 04:26:33;;;;;;;4.07;2.90;;;;;;;7.85;94.21;99512.06;5030055;28;20041;-87
2021/12/01 04:29:00;;;;;;;3.28;2.58;;;;;;;7.91;94.15;99506.63;5042317;28;20132;-89
2021/12/01 04:31:28;;;;;;;5.90;3.45;;;;;;;7.81;94.57;99493.78;5035042;28;20534;-88
2021/12/01 04:33:55;;;;;;;3.60;3.05;;;;;;;7.78;94.09;99473.66;5044375;28;20056;-90
2021/12/01 04:36:24;;;;;;;4.00;3.00;;;;;;;7.82;94.08;99474.44;5046322;28;20028;-88
2021/12/01 04:38:50;;;;;;;4.85;3.28;;;;;;;7.77;93.78;99474.56;5040169;28;20041;-89
2021/12/01 04:41:15;;;;;;;4.68;2.58;;;;;;;7.88;93.66;99464.53;5027474;28;20083;-87
2021/12/01 04:43:41;;;;;;;3.47;2.67;;;;;;;7.86;93.12;99457.59;5041184;28;20038;-88
2021/12/01 04:46:08;;;;;;;6.13;2.90;;;;;;;7.75;93.67;99450.03;5042543;28;20044;-90
2021/12/01 04:48:34;;;;;;;4.45;3.13;;;;;;;7.61;94.99;99445.19;5043976;28;20145;-89
2021/12/01 04:51:00;;;;;;;3.50;2.67;;;;;;;7.69;94.66;99439.69;5042067;28;20016;-88
2021/12/01 04:53:27;;;;;;;4.00;2.97;;;;;;;7.61;96.00;99434.66;5017421;28;20187;-87
2021/12/01 04:55:54;;;;;;;5.30;3.55;;;;;;;7.51;96.52;99433.25;5041189;28;20033;-87
2021/12/01 04:58:20;;;;;;;4.72;2.72;;;;;;;7.58;96.40;99423.38;5045057;28;20037;-87
2021/12/01 05:00:47;;;;;;;4.20;3.00;;;;;;;7.43;96.86;99420.31;5040792;28;20025;-86
2021/12/01 05:03:12;;;;;;;6.30;3.25;;;;;;;7.43;97.13;99424.72;5026796;28;20120;-86
2021/12/01 05:05:38;;;;;;;4.80;3.10;;;;;;;7.40;96.76;99415.16;5044901;28;20117;-87
2021/12/01 05:08:04;;;;;;;5.35;3.05;;;;;;;7.39;96.79;99421.31;5050350;28;20048;-86
2021/12/01 05:10:30;;;;;;;3.45;2.83;;;;;;;7.37;97.84;99412.63;5051980;28;20025;-85
2021/12/01 05:12:56;;;;;;;6.57;3.05;;;;;;;7.27;98.97;99408.53;5053899;28;20033;-86
2021/12/01 05:15:22;;;;;;;3.92;2.50;;;;;;;7.41;97.25;99397.56;5051809;28;20024;-86
2021/12/01 05:17:49;;;;;;;3.05;2.40;;;;;;;7.37;96.81;99394.19;5051686;28;20449;-87
2021/12/01 05:20:15;;;;;;;3.88;2.40;;;;;;;7.43;96.47;99372.91;5051362;28;20192;-87
2021/12/01 05:22:42;;;;;;;4.53;2.80;;;;;;;7.39;96.54;99383.59;5051680;28;20076;-88
2021/12/01 05:25:08;;;;;;;3.83;2.70;;;;;;;7.29;96.72;99385.66;5051669;28;20418;-85
2021/12/01 05:27:34;;;;;;;3.20;2.30;;;;;;;7.37;96.83;99380.13;5051950;28;20178;-86
2021/12/01 05:29:59;;;;;;;5.22;3.15;;;;;;;7.20;98.27;99373.66;5051818;28;20089;-86
2021/12/01 05:32:26;;;;;;;5.05;2.63;;;;;;;7.20;98.68;99378.06;5035174;28;20041;-87
2021/12/01 05:34:51;;;;;;;4.30;2.70;;;;;;;7.10;99.15;99378.34;5051734;28;20094;-86
2021/12/01 05:37:17;;;;;;;2.95;2.42;;;;;;;7.23;98.10;99370.91;5051451;28;20395;-86
2021/12/01 05:39:45;;;;;;;3.58;2.47;;;;;;;7.09;98.76;99358.19;5034970;28;20468;-87
2021/12/01 05:42:12;;;;;;;3.58;2.53;;;;;;;7.04;99.91;99370.63;5035037;28;20049;-87
2021/12/01 05:44:39;;;;;;;2.95;2.10;;;;;;;7.03;100.00;99345.22;5034910;28;20128;-88
2021/12/01 05:47:05;;;;;;;2.47;1.92;;;;;;;7.09;99.66;99346.78;5051294;28;20037;-87
2021/12/01 05:49:31;;;;;;;2.35;1.80;;;;;;;7.16;99.69;99342.22;5050507;28;20039;-87
2021/12/01 05:51:57;;;;;;;4.47;1.52;;;;;;;7.25;98.06;99340.13;5051081;28;20437;-85
2021/12/01 05:54:22;;;;;;;3.00;1.80;;;;;;;7.08;99.75;99329.28;5051224;28;20021;-87
2021/12/01 05:56:48;;;;;;;2.42;1.55;;;;;;;7.11;99.90;99308.13;5034732;28;20508;-88
2021/12/01 05:59:14;;;;;;;1.45;1.35;;;;;;;7.09;99.57;99318.69;5051065;28;20029;-87
2021/12/01 06:01:40;;;;;;;2.53;1.80;;;;;;;7.09;99.62;99302.03;5051286;28;20044;-86
2021/12/01 06:04:06;;;;;;;2.08;1.80;;;;;;;7.07;99.51;99295.97;5033973;28;20030;-87
2021/12/01 06:06:31;;;;;;;2.30;1.58;;;;;;;7.06;100.00;99289.84;5052212;28;20090;-87
2021/12/01 06:08:57;;;;;;;2.33;1.63;;;;;;;6.99;100.00;99292.72;5050319;28;20105;-88
2021/12/01 06:11:22;;;;;;;2.38;1.70;;;;;;;7.00;100.00;99287.44;5034275;28;20095;-88
2021/12/01 06:13:52;;;;;;;2.10;1.67;;;;;;;6.97;100.00;99273.47;5034175;28;20461;-88
2021/12/01 06:16:21;;;;;;;2.28;1.83;;;;;;;6.95;100.00;99270.91;5050973;28;20112;-87
2021/12/01 06:18:47;;;;;;;1.20;1.10;;;;;;;7.03;100.00;99265.41;5034224;28;20505;-87
2021/12/01 06:21:13;;;;;;;1.45;1.23;;;;;;;6.96;100.00;99262.09;5033856;28;20094;-87
2021/12/01 06:23:39;;;;;;;1.10;1.00;;;;;;;6.98;100.00;99249.75;5033973;28;20127;-90
2021/12/01 06:26:04;;;;;;;2.00;1.40;;;;;;;7.10;99.71;99257.25;5034262;28;20052;-88
2021/12/01 06:28:30;;;;;;;2.38;1.30;;;;;;;6.98;100.00;99252.41;5034143;28;20029;-86
2021/12/01 06:30:55;;;;;;;3.72;1.55;;;;;;;7.09;100.00;99259.94;5051743;28;20548;-87
2021/12/01 06:33:21;;;;;;;1.65;1.50;;;;;;;7.03;100.00;99260.16;5034222;28;20476;-87
2021/12/01 06:35:49;;;;;;;3.22;1.42;;;;;;;7.09;100.00;99239.72;5050209;28;20028;-87
2021/12/01 06:38:16;;;;;;;2.10;1.58;;;;;;;7.03;100.00;99237.31;5034408;28;20052;-86
2021/12/01 06:40:42;;;;;;;1.63;1.52;;;;;;;7.05;100.00;99250.44;5052423;28;20035;-86
2021/12/01 06:43:07;;;;;;;2.88;1.90;;;;;;;7.02;100.00;99243.50;5051112;28;20123;-87
2021/12/01 06:45:33;;;;;;;1.73;1.52;;;;;;;7.10;100.00;99238.81;5051072;28;20037;-88
2021/12/01 06:47:58;;;;;;;2.47;1.60;;;;;;;7.06;100.00;99223.19;5034482;28;20048;-87
2021/12/01 06:50:24;;;;;;;2.45;1.77;;;;;;;7.10;100.00;99227.44;5050755;28;20406;-86
2021/12/01 06:52:49;;;;;;;3.08;2.00;;;;;;;7.04;100.00;99217.97;5034312;28;20036;-87
2021/12/01 06:55:20;;;;;;;4.38;1.88;;;;;;;7.13;100.00;99213.31;5052170;28;20072;-87
2021/12/01 06:57:47;;;;;;;2.38;1.75;;;;;;;7.06;100.00;99216.13;5051951;28;20044;-88
2021/12/01 07:00:15;;;;;;;2.58;2.00;;;;;;;7.11;100.00;99218.63;5037382;28;20036;-86
2021/12/01 07:02:41;;;;;;;1.65;1.52;;;;;;;7.18;100.00;99219.28;5033170;28;20037;-86
2021/12/01 07:05:08;;;;;;;3.03;2.20;;;;;;;7.12;100.00;99209.81;5042848;28;20569;-85
2021/12/01 07:07:34;;;;;;;3.05;1.92;;;;;;;7.18;100.00;99208.75;5031601;28;20059;-88
2021/12/01 07:09:59;;;;;;;2.88;2.30;;;;;;;7.15;100.00;99199.19;5021788;28;20107;-86
2021/12/01 07:12:25;;;;;;;2.40;2.10;;;;;;;7.13;100.00;99206.28;5040741;28;20038;-86
2021/12/01 07:14:51;;;;;;;3.17;1.83;;;;;;;7.14;100.00;99192.19;5037509;28;20349;-88
2021/12/01 07:17:17;;;;;;;4.03;2.15;;;;;;;7.23;100.00;99209.47;5016542;28;20401;-87
2021/12/01 07:19:43;;;;;;;4.20;2.63;;;;;;;7.22;100.00;99203.34;5031498;28;20034;-86
2021/12/01 07:22:09;;;;;;;2.40;2.10;;;;;;;7.27;100.00;99196.13;5030869;28;20077;-86
2021/12/01 07:24:35;;;;;;;3.22;2.70;;;;;;;7.25;100.00;99213.75;5036094;28;20130;-86
2021/12/01 07:27:00;;;;;;;4.50;2.58;;;;;;;7.26;100.00;99199.66;5038941;28;20111;-87
2021/12/01 07:29:26;;;;;;;4.13;3.10;;;;;;;7.30;100.00;99190.75;5040512;28;20022;-84
2021/12/01 07:31:53;;;;;;;3.40;2.80;;;;;;;7.35;100.00;99195.88;5039544;28;20143;-86
2021/12/01 07:34:18;;;;;;;3.92;2.95;;;;;;;7.34;100.00;99194.13;5040620;28;20026;-88
2021/12/01 07:36:44;;;;;;;3.95;2.75;;;;;;;7.30;100.00;99192.53;5043026;28;20339;-86
2021/12/01 07:39:09;;;;;;;4.50;2.67;;;;;;;7.36;100.00;99188.81;5042912;28;20025;-89
2021/12/01 07:41:35;;;;;;;3.95;3.28;;;;;;;7.29;100.00;99173.25;5057411;28;20037;-88
2021/12/01 07:44:00;;;;;;;4.05;3.03;;;;;;;7.39;100.00;99160.59;5032746;28;20031;-88
2021/12/01 07:46:26;;;;;;;3.40;3.10;;;;;;;7.39;100.00;99154.47;5017845;28;20037;-87
2021/12/01 07:48:51;;;;;;;3.95;3.05;;;;;;;7.42;100.00;99157.00;5050878;28;20534;-90
2021/12/01 07:51:17;;;;;;;4.53;3.22;;;;;;;7.39;100.00;99173.75;5017220;28;20037;-88
2021/12/01 07:53:43;;;;;;;11.63;3.80;;;;;;;7.51;100.00;99157.50;5033394;28;20356;-89
2021/12/01 07:56:08;;;;;;;8.18;3.08;;;;;;;7.53;100.00;99153.06;5033626;28;20376;-87
2021/12/01 07:58:34;;;;;;;7.30;3.60;;;;;;;7.51;100.00;99151.41;5049909;28;20021;-87
2021/12/01 08:00:59;;;;;;;5.25;3.80;;;;;;;7.51;100.00;99152.25;5051578;28;20037;-89
2021/12/01 08:03:25;;;;;;;7.75;3.75;;;;;;;7.64;100.00;99150.06;5021582;28;20025;-87
2021/12/01 08:05:54;;;;;;;8.82;3.40;;;;;;;7.73;100.00;99152.31;5013878;28;20092;-88
2021/12/01 08:08:19;;;;;;;3.15;2.72;;;;;;;7.74;100.00;99140.88;5049300;28;20021;-88
2021/12/01 08:10:46;;;;;;;4.05;3.65;;;;;;;7.65;100.00;99138.59;5029853;28;20033;-89
2021/12/01 08:13:11;;;;;;;4.65;4.15;;;;;;;7.65;100.00;99150.91;5014537;28;20032;-87
2021/12/01 08:15:37;;;;;;;4.45;3.30;;;;;;;7.73;100.00;99127.75;5033560;28;20489;-87
2021/12/01 08:18:02;;;;;;;5.35;4.85;;;;;;;7.63;100.00;99142.19;5049295;28;20029;-83
2021/12/01 08:20:28;;;;;;;6.75;4.78;;;;;;;7.63;100.00;99150.09;5048694;28;20045;-85
2021/12/01 08:22:54;;;;;;;5.63;4.40;;;;;;;7.58;100.00;99139.72;5034118;28;20378;-83
2021/12/01 08:25:21;;;;;;;7.40;5.15;;;;;;;7.58;100.00;99136.22;5034561;28;20037;-83
2021/12/01 08:27:47;;;;;;;4.75;4.13;;;;;;;7.61;100.00;99129.06;5049979;28;20053;-85
2021/12/01 08:30:13;;;;;;;5.82;4.53;;;;;;;7.64;100.00;99139.50;5034130;28;20060;-84
2021/12/01 08:32:45;;;;;;;7.10;4.93;;;;;;;7.68;100.00;99120.03;5048958;28;20052;-83
2021/12/01 08:35:11;;;;;;;6.55;5.60;;;;;;;7.61;100.00;99133.47;5049031;28;20346;-84
2021/12/01 08:37:36;;;;;;;5.90;5.25;;;;;;;7.59;100.00;99123.03;5033719;28;20044;-84
2021/12/01 08:40:05;;;;;;;7.00;4.60;;;;;;;7.65;100.00;99128.03;5015926;28;20136;-84
2021/12/01 08:42:33;;;;;;;6.50;5.90;;;;;;;7.62;100.00;99115.00;5032166;28;20037;-84
2021/12/01 08:45:00;;;;;;;7.32;5.20;;;;;;;7.69;100.00;99110.34;5016371;28;20041;-85
2021/12/01 08:47:26;;;;;;;7.15;4.68;;;;;;;7.68;100.00;99113.91;5034011;28;20029;-85
2021/12/01 08:49:52;;;;;;;6.47;4.22;;;;;;;7.75;100.00;99097.78;5032496;28;20366;-85
2021/12/01 08:52:17;;;;;;;4.97;4.22;;;;;;;7.80;100.00;99109.94;5015967;28;20025;-84
2021/12/01 08:54:43;;;;;;;6.35;4.65;;;;;;;7.81;100.00;99109.88;5032416;28;20561;-86
2021/12/01 08:57:09;;;;;;;6.10;3.75;;;;;;;7.85;100.00;99114.13;5032004;28;20385;-85
2021/12/01 08:59:36;;;;;;;4.90;4.40;;;;;;;7.86;100.00;99107.06;5015399;28;20480;-85
2021/12/01 09:02:02;;;;;;;4.72;3.70;;;;;;;7.85;100.00;99108.84;5015923;28;20119;-85
2021/12/01 09:04:28;;;;;;;5.80;3.90;;;;;;;7.87;100.00;99114.91;5031583;28;20073;-85
2021/12/01 09:06:54;;;;;;;5.10;3.88;;;;;;;7.85;100.00;99102.72;5032206;28;20083;-86
2021/12/01 09:09:20;;;;;;;4.75;4.25;;;;;;;7.95;98.95;99131.28;5032247;28;20426;-86
2021/12/01 09:11:47;;;;;;;5.78;4.30;;;;;;;7.91;99.07;99116.53;5032075;28;20057;-85
2021/12/01 09:14:12;;;;;;;5.15;3.67;;;;;;;7.84;100.00;99109.78;5041133;28;20480;-85
2021/12/01 09:16:38;;;;;;;8.02;5.03;;;;;;;7.89;99.32;99120.16;5035622;28;20074;-85
2021/12/01 09:19:04;;;;;;;4.70;4.13;;;;;;;7.92;99.74;99117.38;5052575;28;20356;-83
2021/12/01 09:21:29;;;;;;;5.60;4.72;;;;;;;7.88;99.73;99121.03;5051793;28;20056;-84
2021/12/01 09:23:55;;;;;;;4.00;3.53;;;;;;;7.96;99.06;99119.84;5050837;28;20040;-84
2021/12/01 09:26:20;;;;;;;5.57;4.22;;;;;;;8.04;97.98;99143.28;5051587;28;20499;-84
2021/12/01 09:28:46;;;;;;;4.57;4.03;;;;;;;8.02;98.98;99136.34;5034989;28;20396;-86
2021/12/01 09:31:12;;;;;;;6.68;4.85;;;;;;;7.89;99.81;99143.88;5051740;28;20068;-84
2021/12/01 09:33:38;;;;;;;5.03;4.32;;;;;;;7.85;99.78;99136.97;5052713;28;20033;-84
2021/12/01 09:36:04;;;;;;;5.93;5.18;;;;;;;7.84;100.00;99158.97;5051406;28;20408;-82
2021/12/01 09:38:30;;;;;;;5.38;4.40;;;;;;;7.82;100.00;99153.78;5052105;28;20048;-84
2021/12/01 09:40:58;;;;;;;7.15;3.63;;;;;;;7.77;99.59;99155.72;5051390;28;20016;-84
2021/12/01 09:43:27;;;;;;;8.73;3.08;;;;;;;7.71;99.20;99161.19;5052343;28;20394;-83
2021/12/01 09:45:55;;;;;;;8.10;2.92;;;;;;;7.61;99.37;99168.59;5052491;28;20118;-83
2021/12/01 09:48:21;;;;;;;9.20;2.35;;;;;;;7.51;98.45;99172.47;5050894;28;20400;-85
2021/12/01 09:50:47;;;;;;;6.38;1.95;;;;;;;7.44;97.00;99166.59;5050478;28;20509;-83
2021/12/01 09:53:14;;;;;;;10.02;2.00;;;;;;;7.39;95.19;99165.00;5051980;28;20408;-84
2021/12/01 09:55:40;;;;;;;12.32;2.22;;;;;;;7.36;96.04;99167.75;5051906;28;20044;-84
2021/12/01 09:58:11;;;;;;;9.75;1.88;;;;;;;7.40;95.04;99170.22;5052135;28;20492;-84
2021/12/01 10:00:39;;;;;;;10.07;1.93;;;;;;;7.37;95.73;99164.19;5050413;28;20040;-85
2021/12/01 10:03:05;;;;;;;11.05;2.28;;;;;;;7.36;96.63;99151.97;5033734;28;20303;-84
2021/12/01 10:05:46;;;;;;;7.82;1.92;;;;;;;7.43;95.80;99166.63;5051516;28;20068;-84
2021/12/01 10:08:19;;;;;;;9.98;1.98;;;;;;;7.40;96.75;99153.56;5051995;28;20029;-86
2021/12/01 10:10:45;;;;;;;13.30;2.67;;;;;;;7.44;95.59;99147.25;5034274;28;20056;-84
2021/12/01 10:13:10;;;;;;;14.02;2.95;;;;;;;7.40;95.64;99143.91;5015350;28;20029;-86
2021/12/01 10:15:36;;;;;;;6.32;1.98;;;;;;;7.41;94.82;99148.22;5014025;28;20037;-84
2021/12/01 10:18:08;;;;;;;13.95;2.42;;;;;;;7.38;94.42;99144.88;5031974;28;20362;-85
2021/12/01 10:20:34;;;;;;;10.73;2.25;;;;;;;7.34;94.30;99152.00;5030135;28;20060;-85
2021/12/01 10:23:13;;;;;;;15.25;2.38;;;;;;;7.35;94.47;99153.72;5030579;28;20049;-84
2021/12/01 10:25:41;;;;;;;9.32;2.05;;;;;;;7.36;94.38;99151.97;5030071;28;20446;-84
2021/12/01 10:28:07;;;;;;;12.13;2.00;;;;;;;7.38;94.40;99158.88;5031749;28;20053;-85
2021/12/01 10:30:38;;;;;;;10.50;2.13;;;;;;;7.40;94.68;99156.22;5046874;28;20038;-85
2021/12/01 10:33:22;;;;;;;12.75;2.33;;;;;;;7.45;94.04;99167.44;5031850;28;20034;-85
2021/12/01 10:35:47;;;;;;;8.25;2.10;;;;;;;7.41;94.16;99156.13;5032526;28;20466;-86
2021/12/01 10:38:25;;;;;;;7.93;1.83;;;;;;;7.48;94.43;99151.50;5050184;28;20024;-85
2021/12/01 10:41:10;;;;;;;17.80;3.50;;;;;;;7.54;93.60;99156.53;5049820;28;20048;-85
2021/12/01 10:43:44;;;;;;;14.80;2.15;;;;;;;7.58;93.40;99158.16;5051104;28;20503;-86
2021/12/01 10:46:18;;;;;;;15.75;2.08;;;;;;;7.51;91.37;99151.41;5033271;28;20405;-86
2021/12/01 10:48:58;;;;;;;8.63;2.00;;;;;;;7.49;91.12;99147.94;5050008;28;20119;-85
2021/12/01 10:51:36;;;;;;;10.57;1.70;;;;;;;7.45;91.57;99143.72;5050032;28;20036;-86
2021/12/01 10:54:03;;;;;;;5.32;1.17;;;;;;;7.39;90.61;99141.31;5049594;28;20048;-85
2021/12/01 10:56:28;;;;;;;8.40;1.58;;;;;;;7.32;90.49;99143.31;5016367;28;20124;-86
2021/12/01 10:58:54;;;;;;;5.72;1.42;;;;;;;7.32;90.68;99145.94;5049863;28;20040;-85
2021/12/01 11:01:22;;;;;;;4.97;1.48;;;;;;;7.31;91.35;99147.69;5033653;28;20450;-85
2021/12/01 11:03:50;;;;;;;8.77;1.50;;;;;;;7.26;89.89;99139.09;5049628;28;20044;-86
2021/12/01 11:06:22;;;;;;;6.07;1.70;;;;;;;7.22;90.56;99144.53;5049586;28;20028;-86
2021/12/01 11:08:59;;;;;;;10.23;1.27;;;;;;;7.26;90.44;99146.16;5049444;28;20044;-86
2021/12/01 11:11:44;;;;;;;8.73;1.80;;;;;;;7.25;91.07;99147.94;5051040;28;20047;-86
2021/12/01 11:14:12;;;;;;;4.50;1.42;;;;;;;7.26;90.83;99148.78;5049481;28;20452;-86
2021/12/01 11:16:40;;;;;;;6.03;1.27;;;;;;;7.29;89.92;99151.31;5050943;28;20036;-86
2021/12/01 11:19:07;;;;;;;7.43;2.00;;;;;;;7.25;89.66;99147.94;5051013;28;20037;-86
2021/12/01 11:21:33;;;;;;;6.15;1.70;;;;;;;7.22;89.83;99150.69;5051362;28;20149;-87
2021/12/01 11:24:00;;;;;;;7.53;1.85;;;;;;;7.22;89.41;99162.97;5049126;28;20238;-86
2021/12/01 11:26:28;;;;;;;8.60;1.50;;;;;;;7.24;89.67;99164.63;5049846;28;20487;-87
2021/12/01 11:28:59;;;;;;;5.60;1.40;;;;;;;7.22;90.55;99161.22;5050741;28;20508;-87
2021/12/01 11:31:33;;;;;;;;;;;;;;;7.29;89.28;99148.66;5051517;28;20222;-86
2021/12/01 11:34:01;;;;;;;9.70;1.88;;;;;;;7.20;90.39;99147.25;5049576;28;19912;-87
2021/12/01 11:36:30;;;;;;;6.65;1.67;;;;;;;7.25;88.93;99147.09;5049621;28;20028;-87
2021/12/01 11:38:58;;;;;;;10.30;1.75;;;;;;;7.22;90.22;99152.44;5049499;28;20025;-87
2021/12/01 11:41:25;;;;;;;12.45;2.13;;;;;;;7.29;89.34;99141.66;5049515;28;20036;-86